Time;durP1;ratioP1;P1;durP2;ratioP2;P2;SDS_P1;SDS_P2;PMS_P1;PMS_P2;Temp;Humidity;BMP_temperature;BMP_pressure;BME280_temperature;BME280_humidity;BME280_pressure;Samples;Min_cycle;Max_cycle;Signal;HPM_P1;HPM_P2
2024/02/07 00:00:47;;;;;;;;;2.00;2.00;;;;;13.26;100.00;97633.25;6290550;27;96961;-57
2024/02/07 00:03:51;;;;;;;;;3.00;2.00;;;;;13.34;100.00;97610.28;6290193;27;96663;-57
2024/02/07 00:06:56;;;;;;;;;3.00;3.00;;;;;13.40;100.00;97601.06;6289841;27;96828;-56
2024/02/07 00:09:59;;;;;;;;;3.00;2.00;;;;;13.44;100.00;97604.84;6271626;27;96279;-56
2024/02/07 00:13:02;;;;;;;;;2.00;1.67;;;;;13.32;100.00;97634.09;6290529;27;96993;-56
2024/02/07 00:16:06;;;;;;;;;3.00;2.00;;;;;13.33;100.00;97616.78;6290237;27;96439;-56
2024/02/07 00:19:09;;;;;;;;;2.00;2.00;;;;;13.45;100.00;97591.03;6290409;27;96366;-56
2024/02/07 00:22:14;;;;;;;;;2.00;2.00;;;;;13.50;100.00;97605.66;6290036;27;96276;-56
2024/02/07 00:25:18;;;;;;;;;2.00;2.00;;;;;13.49;100.00;97598.63;6289925;27;96349;-56
2024/02/07 00:28:21;;;;;;;;;2.00;2.00;;;;;13.56;100.00;97594.56;6289668;27;96602;-57
2024/02/07 00:31:24;;;;;;;;;2.00;2.00;;;;;13.46;100.00;97583.72;6289479;27;96849;-56
2024/02/07 00:34:27;;;;;;;;;3.40;2.00;;;;;13.45;100.00;97574.81;6289632;27;96658;-57
2024/02/07 00:37:32;;;;;;;;;2.00;2.00;;;;;13.47;100.00;97569.13;6289753;27;96364;-57
2024/02/07 00:40:35;;;;;;;;;3.00;2.80;;;;;13.47;100.00;97569.13;6289727;27;97472;-57
2024/02/07 00:43:38;;;;;;;;;2.00;2.00;;;;;13.55;100.00;97576.69;6291040;27;96354;-57
2024/02/07 00:46:41;;;;;;;;;4.00;3.40;;;;;13.42;100.00;97567.22;6290623;27;96595;-57
2024/02/07 00:49:44;;;;;;;;;4.00;3.00;;;;;13.53;100.00;97569.94;6289736;27;96956;-57
2024/02/07 00:52:49;;;;;;;;;3.00;3.00;;;;;13.54;100.00;97545.28;6290877;27;96354;-57
2024/02/07 00:55:53;;;;;;;;;3.00;2.25;;;;;13.58;100.00;97554.50;6297266;27;96334;-56
2024/02/07 00:58:57;;;;;;;;;4.00;3.00;;;;;13.42;100.00;97566.41;6296367;27;96294;-56
2024/02/07 01:02:00;;;;;;;;;3.00;3.00;;;;;13.47;100.00;97611.63;6278752;27;96818;-56
2024/02/07 01:05:04;;;;;;;;;2.00;2.00;;;;;13.39;100.00;97545.28;6296979;27;96428;-56
2024/02/07 01:08:09;;;;;;;;;3.00;2.50;;;;;13.39;100.00;97540.69;6295777;27;96785;-56
2024/02/07 01:11:12;;;;;;;;;4.00;4.00;;;;;13.32;100.00;97542.88;6294891;27;97674;-56
2024/02/07 01:14:15;;;;;;;;;2.00;2.00;;;;;13.42;100.00;97547.47;6295923;27;96311;-56
2024/02/07 01:17:18;;;;;;;;;1.00;1.00;;;;;13.41;100.00;97526.88;6294770;27;96371;-56
2024/02/07 01:20:21;;;;;;;;;3.00;3.00;;;;;13.51;100.00;97531.47;6294032;27;97033;-56
2024/02/07 01:23:26;;;;;;;;;1.00;1.00;;;;;13.48;100.00;97540.97;6286388;27;96800;-56
2024/02/07 01:26:33;;;;;;;;;2.60;2.60;;;;;13.44;100.00;97542.56;6276586;27;97289;-56
2024/02/07 01:29:37;;;;;;;;;4.00;3.00;;;;;13.39;100.00;97526.34;6295724;27;96458;-56
2024/02/07 01:32:41;;;;;;;;;2.00;2.00;;;;;13.46;100.00;97535.00;6296488;27;96345;-56
2024/02/07 01:35:46;;;;;;;;;3.00;3.00;;;;;13.69;100.00;97517.34;6297288;27;96760;-56
2024/02/07 01:38:50;;;;;;;;;4.00;4.00;;;;;13.71;100.00;97515.19;6296769;27;96350;-56
2024/02/07 01:41:59;;;;;;;;;2.00;2.00;;;;;13.43;100.00;97519.31;6296869;27;96250;-56
2024/02/07 01:45:22;;;;;;;;;3.20;2.40;;;;;13.49;100.00;97526.31;6278196;27;96359;-56
2024/02/07 01:48:26;;;;;;;;;2.00;1.60;;;;;13.36;100.00;97514.19;6295733;27;96158;-56
2024/02/07 01:51:29;;;;;;;;;2.80;1.80;;;;;13.21;100.00;97502.53;6277925;27;96203;-56
2024/02/07 01:54:34;;;;;;;;;3.00;3.00;;;;;13.39;100.00;97507.38;6295130;27;97852;-56
2024/02/07 01:57:37;;;;;;;;;3.00;1.25;;;;;13.27;100.00;97531.25;6296411;27;96274;-56
2024/02/07 02:00:40;;;;;;;;;2.40;2.40;;;;;13.31;100.00;97513.38;6296506;27;96398;-57
2024/02/07 02:03:44;;;;;;;;;3.00;3.00;;;;;13.25;100.00;97515.25;6256795;22;97022;-57
2024/02/07 02:06:47;;;;;;;;;3.00;3.00;;;;;13.38;100.00;97495.78;6236633;28;96367;-57
2024/02/07 02:09:54;;;;;;;;;4.60;3.00;;;;;13.23;100.00;97493.09;6237277;28;96124;-57
2024/02/07 02:12:57;;;;;;;;;3.00;3.00;;;;;13.30;100.00;97500.91;6238012;28;97626;-57
2024/02/07 02:16:01;;;;;;;;;4.00;3.00;;;;;13.29;100.00;97494.69;6237339;28;96251;-57
2024/02/07 02:19:04;;;;;;;;;4.00;3.00;;;;;13.21;100.00;97499.84;6237999;28;96468;-57
2024/02/07 02:22:26;;;;;;;;;3.00;3.00;;;;;13.23;100.00;97503.91;6238205;28;96402;-57
2024/02/07 02:25:57;;;;;;;;;3.00;3.00;;;;;13.25;100.00;97501.72;6238252;28;97708;-57
2024/02/07 02:29:15;;;;;;;;;2.00;2.00;;;;;13.12;100.00;97482.53;6235554;28;96578;-58
2024/02/07 02:32:18;;;;;;;;;1.00;1.00;;;;;13.24;100.00;97475.75;6238043;27;96344;-58
2024/02/07 02:35:22;;;;;;;;;3.00;3.00;;;;;13.31;100.00;97468.16;6237960;28;96404;-57
2024/02/07 02:38:26;;;;;;;;;2.00;2.00;;;;;13.18;100.00;97455.22;6237498;28;96311;-57
2024/02/07 02:41:29;;;;;;;;;2.00;2.00;;;;;13.18;100.00;97446.28;6237847;28;97470;-57
2024/02/07 02:44:34;;;;;;;;;2.00;1.60;;;;;13.05;100.00;97453.00;6238241;28;96406;-57
2024/02/07 02:47:38;;;;;;;;;3.00;2.00;;;;;12.99;100.00;97427.06;6238016;28;96378;-57
2024/02/07 02:50:42;;;;;;;;;3.00;2.60;;;;;13.23;100.00;97452.50;6237657;28;98076;-57
2024/02/07 02:53:45;;;;;;;;;4.00;2.20;;;;;13.28;100.00;97451.69;6237685;28;96358;-57
2024/02/07 02:56:49;;;;;;;;;2.00;2.00;;;;;13.16;100.00;97454.66;6237612;28;96404;-57
2024/02/07 02:59:54;;;;;;;;;2.00;1.50;;;;;13.12;100.00;97450.88;6219646;28;96432;-57
2024/02/07 03:02:58;;;;;;;;;2.00;2.00;;;;;13.12;100.00;97461.72;6236758;28;96555;-57
2024/02/07 03:06:03;;;;;;;;;3.75;2.75;;;;;13.09;100.00;97437.06;6237459;28;96295;-58
2024/02/07 03:09:07;;;;;;;;;3.00;3.00;;;;;13.14;100.00;97447.91;6237796;28;96385;-57
2024/02/07 03:12:11;;;;;;;;;2.00;2.00;;;;;13.13;100.00;97430.88;6237802;28;96915;-58
2024/02/07 03:15:18;;;;;;;;;4.00;3.00;;;;;13.28;100.00;97438.16;6238427;28;96309;-53
2024/02/07 03:18:21;;;;;;;;;3.00;2.00;;;;;13.20;100.00;97412.44;6237513;28;96413;-54
2024/02/07 03:21:25;;;;;;;;;3.40;3.20;;;;;13.12;100.00;97420.31;6238238;28;96428;-55
2024/02/07 03:24:29;;;;;;;;;3.00;3.00;;;;;12.90;100.00;97407.84;6236706;28;96366;-54
2024/02/07 03:27:32;;;;;;;;;3.00;3.00;;;;;13.02;100.00;97415.69;6237145;28;96338;-54
2024/02/07 03:30:37;;;;;;;;;3.75;3.00;;;;;12.84;100.00;97424.38;6237702;28;96483;-53
2024/02/07 03:33:40;;;;;;;;;4.00;4.00;;;;;13.08;100.00;97392.97;6219155;28;96274;-54
2024/02/07 03:36:43;;;;;;;;;4.00;3.00;;;;;13.02;100.00;97404.88;6237465;28;96256;-54
2024/02/07 03:39:46;;;;;;;;;6.00;6.00;;;;;13.12;100.00;97393.25;6218927;28;96517;-53
2024/02/07 03:42:50;;;;;;;;;4.00;4.00;;;;;13.10;100.00;97404.31;6238831;28;96431;-53
2024/02/07 03:45:54;;;;;;;;;3.00;3.00;;;;;13.12;100.00;97404.06;6240681;28;96343;-53
2024/02/07 03:48:57;;;;;;;;;3.40;3.00;;;;;13.18;100.00;97386.75;6241295;28;96762;-54
2024/02/07 03:52:02;;;;;;;;;3.00;3.00;;;;;13.11;100.00;97376.19;6243024;28;96293;-54
2024/02/07 03:55:08;;;;;;;;;2.50;2.50;;;;;13.01;100.00;97395.94;6242888;28;96401;-54
2024/02/07 03:58:12;;;;;;;;;2.00;2.00;;;;;13.00;100.00;97375.38;6243726;28;97496;-54
2024/02/07 04:01:18;;;;;;;;;3.00;3.00;;;;;13.03;100.00;97387.56;6243146;28;96399;-53
2024/02/07 04:04:22;;;;;;;;;2.00;2.00;;;;;13.02;100.00;97385.94;6242601;28;96461;-53
2024/02/07 04:07:25;;;;;;;;;3.00;2.80;;;;;13.17;100.00;97377.00;6241008;28;96467;-54
2024/02/07 04:10:31;;;;;;;;;3.00;3.00;;;;;13.09;100.00;97383.78;6243333;28;96332;-54
2024/02/07 05:16:56;;;;;;;;;1.00;1.00;;;;;12.90;100.00;97321.31;6221854;28;96794;-54
2024/02/07 05:19:59;;;;;;;;;1.00;1.00;;;;;13.04;100.00;97305.31;6238847;27;96547;-55
2024/02/07 05:23:04;;;;;;;;;3.00;2.00;;;;;13.11;100.00;97305.03;6209908;27;96703;-55
2024/02/07 05:26:08;;;;;;;;;3.00;3.00;;;;;12.98;100.00;97299.13;6215948;28;99812;-55
2024/02/07 05:29:15;;;;;;;;;3.00;3.00;;;;;12.86;100.00;97297.78;6238175;27;96442;-55
2024/02/07 05:32:19;;;;;;;;;3.00;3.00;;;;;12.99;100.00;97305.34;6238015;27;96717;-55
2024/02/07 05:35:22;;;;;;;;;3.00;2.00;;;;;13.08;100.00;97306.41;6237604;27;96459;-59
2024/02/07 05:38:26;;;;;;;;;1.60;1.60;;;;;13.07;100.00;97301.25;6235458;27;96475;-58
2024/02/07 05:41:30;;;;;;;;;3.00;3.00;;;;;13.11;100.00;97297.75;6218951;27;97065;-58
2024/02/07 05:44:33;;;;;;;;;4.00;3.00;;;;;12.94;100.00;97308.06;6242866;27;96443;-57
2024/02/07 05:47:36;;;;;;;;;2.00;2.00;;;;;13.04;100.00;97275.56;6246926;27;96695;-58
2024/02/07 05:50:39;;;;;;;;;1.00;1.00;;;;;13.06;100.00;97278.78;6248086;27;96505;-57
2024/02/07 05:53:43;;;;;;;;;2.00;2.00;;;;;13.12;100.00;97272.31;6244690;27;96356;-58
2024/02/07 05:56:47;;;;;;;;;2.25;2.00;;;;;13.06;100.00;97292.31;6247712;27;96357;-58
2024/02/07 05:59:50;;;;;;;;;5.00;5.00;;;;;13.15;100.00;97296.09;6245152;27;96562;-58
2024/02/07 06:02:54;;;;;;;;;3.00;3.00;;;;;13.09;100.00;97291.78;6242088;27;96620;-57
2024/02/07 06:05:58;;;;;;;;;3.00;2.00;;;;;13.09;100.00;97278.25;6246917;27;97859;-57
2024/02/07 06:09:04;;;;;;;;;3.00;3.00;;;;;13.22;100.00;97277.69;6232531;28;97527;-57
2024/02/07 06:12:10;;;;;;;;;3.00;2.40;;;;;13.16;100.00;97286.91;6246522;27;96565;-57
2024/02/07 06:15:14;;;;;;;;;5.60;4.00;;;;;13.21;100.00;97275.25;6243478;27;96632;-57
2024/02/07 06:18:17;;;;;;;;;3.00;3.00;;;;;13.22;100.00;97276.88;6237814;27;96248;-57
2024/02/07 06:21:21;;;;;;;;;2.80;2.00;;;;;13.31;100.00;97288.72;6235741;27;97476;-57
2024/02/07 06:24:25;;;;;;;;;1.00;1.00;;;;;13.36;100.00;97288.72;6225339;28;96477;-57
2024/02/07 06:27:28;;;;;;;;;2.00;1.00;;;;;13.31;100.00;97273.31;6229658;28;96397;-57
2024/02/07 06:30:31;;;;;;;;;1.25;1.25;;;;;13.26;100.00;97269.81;6238513;28;97844;-57
2024/02/07 06:33:34;;;;;;;;;4.00;3.00;;;;;13.39;100.00;97278.13;6238223;28;96315;-58
2024/02/07 06:36:38;;;;;;;;;4.00;3.00;;;;;13.31;100.00;97262.47;6238061;28;96690;-57
2024/02/07 06:39:42;;;;;;;;;3.00;3.00;;;;;13.63;100.00;97281.00;6238218;28;96361;-57
2024/02/07 06:42:45;;;;;;;;;5.00;4.00;;;;;13.57;100.00;97275.88;6237033;28;96364;-57
2024/02/07 06:45:48;;;;;;;;;2.00;2.00;;;;;13.62;100.00;97283.97;6214862;28;96933;-53
2024/02/07 06:48:51;;;;;;;;;3.00;2.40;;;;;13.58;100.00;97274.81;6213792;28;96330;-53
2024/02/07 06:51:55;;;;;;;;;3.80;3.80;;;;;13.64;100.00;97279.88;6214746;28;96422;-53
2024/02/07 06:54:59;;;;;;;;;2.00;1.20;;;;;13.70;100.00;97267.94;6214848;28;96836;-54
2024/02/07 06:58:02;;;;;;;;;3.00;2.00;;;;;13.84;100.00;97289.78;6215047;28;96258;-53
2024/02/07 07:01:05;;;;;;;;;3.00;3.00;;;;;13.88;100.00;97280.81;6197313;28;96475;-53
2024/02/07 07:04:08;;;;;;;;;3.60;3.00;;;;;13.87;100.00;97284.63;6215055;28;96565;-53
2024/02/07 07:07:12;;;;;;;;;5.00;4.00;;;;;13.75;100.00;97267.09;6215168;28;96390;-53
2024/02/07 07:10:16;;;;;;;;;4.00;3.00;;;;;13.76;100.00;97271.44;6224276;28;96873;-53
2024/02/07 07:13:20;;;;;;;;;3.40;3.40;;;;;13.87;100.00;97267.56;6238881;28;96382;-53
2024/02/07 07:16:23;;;;;;;;;4.40;4.00;;;;;13.84;100.00;97268.09;6238270;28;96204;-53
2024/02/07 07:19:26;;;;;;;;;3.00;3.00;;;;;13.88;100.00;97261.03;6238958;27;96267;-54
2024/02/07 07:22:29;;;;;;;;;3.00;2.00;;;;;13.89;100.00;97260.75;6242372;28;96308;-53
2024/02/07 07:25:34;;;;;;;;;4.00;4.00;;;;;13.78;100.00;97272.75;6243712;28;96170;-53
2024/02/07 07:28:37;;;;;;;;;3.00;3.00;;;;;13.71;100.00;97252.50;6225581;28;96530;-53
2024/02/07 07:31:40;;;;;;;;;4.00;3.00;;;;;13.64;100.00;97274.47;6240393;28;96326;-54
2024/02/07 07:34:43;;;;;;;;;4.00;4.00;;;;;13.65;100.00;97267.16;6238465;28;96377;-53
2024/02/07 07:37:47;;;;;;;;;4.80;3.20;;;;;13.62;100.00;97276.66;6241292;28;96260;-54
2024/02/07 07:40:51;;;;;;;;;5.00;4.00;;;;;13.80;100.00;97267.06;6221903;28;99273;-54
2024/02/07 07:43:57;;;;;;;;;4.75;3.75;;;;;13.66;100.00;97266.06;6241751;28;96529;-53
2024/02/07 07:47:00;;;;;;;;;4.00;4.00;;;;;13.68;100.00;97272.81;6238277;28;96375;-55
2024/02/07 07:50:04;;;;;;;;;3.00;3.00;;;;;13.78;100.00;97261.13;6234239;28;96372;-54
2024/02/07 07:53:08;;;;;;;;;4.00;3.00;;;;;13.84;100.00;97271.63;6241069;28;97555;-54
2024/02/07 07:56:12;;;;;;;;;3.50;3.50;;;;;13.75;100.00;97270.63;6240323;28;96345;-57
2024/02/07 07:59:16;;;;;;;;;2.20;2.20;;;;;13.71;100.00;97268.75;6239776;28;96386;-57
2024/02/07 08:02:20;;;;;;;;;4.00;4.00;;;;;13.75;100.00;97267.91;6239775;28;96495;-57
2024/02/07 08:05:23;;;;;;;;;3.00;2.00;;;;;13.86;100.00;97268.66;6241244;28;96312;-57
2024/02/07 08:08:26;;;;;;;;;3.00;3.00;;;;;13.88;100.00;97256.44;6241192;28;96270;-57
2024/02/07 08:11:31;;;;;;;;;3.50;3.00;;;;;13.77;100.00;97259.50;6241132;27;96521;-57
2024/02/07 08:14:34;;;;;;;;;4.00;3.00;;;;;13.80;100.00;97250.81;6240803;27;96773;-57
2024/02/07 08:17:37;;;;;;;;;4.00;3.00;;;;;13.78;100.00;97259.22;6241085;28;96513;-57
2024/02/07 08:20:40;;;;;;;;;4.00;3.00;;;;;13.77;100.00;97254.91;6241080;28;96491;-57
2024/02/07 08:23:43;;;;;;;;;4.40;4.00;;;;;13.77;100.00;97273.88;6240764;28;96828;-57
2024/02/07 08:26:48;;;;;;;;;4.00;4.00;;;;;13.86;100.00;97255.09;6240850;28;96349;-57
2024/02/07 08:29:52;;;;;;;;;3.25;3.00;;;;;13.85;100.00;97261.59;6240500;27;96349;-58
2024/02/07 08:32:56;;;;;;;;;3.00;3.00;;;;;13.67;100.00;97241.44;6240462;28;96278;-57
2024/02/07 08:35:59;;;;;;;;;4.00;3.00;;;;;13.81;100.00;97255.16;6240640;28;96445;-57
2024/02/07 08:39:02;;;;;;;;;3.20;2.60;;;;;13.88;100.00;97256.44;6240425;28;96592;-57
2024/02/07 08:42:07;;;;;;;;;5.00;5.00;;;;;13.81;100.00;97250.53;6240614;28;96321;-57
2024/02/07 08:45:12;;;;;;;;;4.75;3.75;;;;;13.68;100.00;97226.00;6240166;27;96302;-57
2024/02/07 08:48:15;;;;;;;;;4.00;3.00;;;;;13.80;100.00;97240.78;6239748;28;97447;-57
2024/02/07 08:51:18;;;;;;;;;4.00;3.00;;;;;13.92;100.00;97235.03;6239965;27;96387;-57
2024/02/07 08:54:21;;;;;;;;;3.00;2.00;;;;;13.97;100.00;97243.09;6239187;28;96482;-57
2024/02/07 08:57:28;;;;;;;;;3.00;3.00;;;;;14.11;100.00;97244.06;6238848;28;96493;-57
2024/02/07 09:00:31;;;;;;;;;3.20;3.00;;;;;14.00;100.00;97220.03;6240218;28;96466;-57
2024/02/07 09:03:34;;;;;;;;;4.00;4.00;;;;;14.04;100.00;97231.94;6239662;28;96386;-57
2024/02/07 09:06:37;;;;;;;;;5.00;4.00;;;;;14.12;100.00;97234.03;6240967;28;96280;-57
2024/02/07 09:09:40;;;;;;;;;5.25;3.00;;;;;14.19;100.00;97232.63;6239471;28;96698;-57
2024/02/07 09:12:45;;;;;;;;;4.00;4.00;;;;;14.18;100.00;97219.34;6239863;28;96343;-57
2024/02/07 09:15:48;;;;;;;;;4.00;4.00;;;;;14.10;100.00;97223.47;6239779;28;96863;-57
2024/02/07 09:18:52;;;;;;;;;4.00;4.00;;;;;13.97;100.00;97213.31;6239090;28;96381;-58
2024/02/07 09:21:55;;;;;;;;;4.00;4.00;;;;;14.02;100.00;97234.94;6239839;28;96306;-57
2024/02/07 09:24:58;;;;;;;;;5.00;4.00;;;;;13.85;100.00;97223.69;6239697;28;96264;-57
2024/02/07 09:28:03;;;;;;;;;3.00;3.00;;;;;13.77;100.00;97221.59;6238960;28;96237;-57
2024/02/07 09:31:07;;;;;;;;;4.00;3.00;;;;;13.86;100.00;97220.72;6239218;28;96873;-57
2024/02/07 09:34:11;;;;;;;;;3.00;3.00;;;;;13.83;100.00;97217.72;6238551;28;96643;-57
2024/02/07 09:37:14;;;;;;;;;3.00;3.00;;;;;13.80;100.00;97221.00;6239240;28;96419;-57
2024/02/07 09:40:19;;;;;;;;;3.20;2.80;;;;;13.89;100.00;97203.88;6231775;28;96234;-57
2024/02/07 09:43:24;;;;;;;;;4.00;4.00;;;;;13.97;100.00;97224.16;6225595;28;96803;-57
2024/02/07 09:46:34;;;;;;;;;5.00;5.00;;;;;13.92;100.00;97226.91;6233656;28;96314;-57
2024/02/07 09:49:38;;;;;;;;;4.00;3.00;;;;;13.84;100.00;97232.91;6228817;28;96862;-57
2024/02/07 09:52:43;;;;;;;;;5.00;5.00;;;;;13.69;100.00;97214.88;6212819;28;97432;-57
2024/02/07 09:55:47;;;;;;;;;4.00;3.60;;;;;13.53;100.00;97221.50;6212883;28;96421;-57
2024/02/07 09:58:52;;;;;;;;;5.00;4.75;;;;;13.39;100.00;97212.34;6212822;28;96556;-57
2024/02/07 10:01:56;;;;;;;;;4.00;4.00;;;;;13.29;100.00;97215.94;6213173;28;96403;-57
2024/02/07 10:05:01;;;;;;;;;5.00;4.00;;;;;13.17;100.00;97211.97;6212247;28;96523;-57
2024/02/07 10:08:06;;;;;;;;;4.00;4.00;;;;;13.14;100.00;97212.53;6213917;28;96342;-57
2024/02/07 10:11:09;;;;;;;;;5.40;5.00;;;;;13.03;100.00;97207.13;6212495;28;96604;-57
2024/02/07 10:14:15;;;;;;;;;4.00;3.00;;;;;13.13;100.00;97200.06;6213309;28;96516;-57
2024/02/07 10:17:18;;;;;;;;;5.50;5.00;;;;;13.03;100.00;97209.03;6214604;28;96262;-56
2024/02/07 10:20:21;;;;;;;;;5.40;4.60;;;;;13.18;100.00;97197.34;6212282;28;96806;-57
2024/02/07 10:23:24;;;;;;;;;4.00;3.80;;;;;13.23;100.00;97211.66;6211728;28;96424;-56
2024/02/07 10:26:27;;;;;;;;;6.00;4.40;;;;;13.43;100.00;97179.06;6212113;28;96325;-57
2024/02/07 10:29:32;;;;;;;;;5.60;4.60;;;;;13.92;100.00;97180.84;6212084;28;96679;-57
2024/02/07 10:32:36;;;;;;;;;3.00;3.00;;;;;14.02;100.00;97169.91;6211895;28;96911;-57
2024/02/07 10:35:39;;;;;;;;;3.00;3.00;;;;;14.06;100.00;97191.81;6213374;28;96593;-56
2024/02/07 10:38:43;;;;;;;;;3.80;3.80;;;;;14.00;100.00;97182.94;6214053;28;96362;-56
2024/02/07 10:41:46;;;;;;;;;4.00;3.00;;;;;13.86;100.00;97193.63;6213719;28;97421;-57
2024/02/07 10:45:02;;;;;;;;;5.00;4.00;;;;;13.60;100.00;97169.72;6203528;28;96804;-57
2024/02/07 10:48:06;;;;;;;;;4.80;4.20;;;;;13.52;100.00;97181.97;6226941;28;96509;-57
2024/02/07 10:51:10;;;;;;;;;3.60;3.60;;;;;13.55;100.00;97177.88;6236748;28;96419;-57
2024/02/07 10:54:13;;;;;;;;;5.00;4.00;;;;;13.31;100.00;97180.47;6237746;28;96573;-57
2024/02/07 10:57:22;;;;;;;;;5.00;4.00;;;;;13.37;100.00;97182.06;6224144;28;96576;-57
2024/02/07 11:00:27;;;;;;;;;4.00;4.00;;;;;13.24;100.00;97180.00;6224021;28;96688;-57
2024/02/07 11:03:31;;;;;;;;;5.00;4.00;;;;;13.25;100.00;97176.19;6225595;28;96867;-57
2024/02/07 11:06:35;;;;;;;;;5.00;4.60;;;;;13.21;100.00;97177.84;6216710;28;96277;-57
2024/02/07 11:09:39;;;;;;;;;4.00;4.00;;;;;13.32;100.00;97168.56;6221272;28;96873;-57
2024/02/07 11:12:43;;;;;;;;;4.00;3.00;;;;;13.20;100.00;97173.50;6229654;28;96711;-57
2024/02/07 11:15:48;;;;;;;;;4.00;4.00;;;;;13.21;100.00;97165.13;6229042;28;96345;-57
2024/02/07 11:18:52;;;;;;;;;4.40;4.00;;;;;13.11;100.00;97153.50;6234871;28;96628;-57
2024/02/07 11:21:57;;;;;;;;;3.75;3.75;;;;;13.03;100.00;97179.28;6236243;28;96390;-57
2024/02/07 11:25:02;;;;;;;;;5.00;4.00;;;;;12.97;100.00;97162.25;6237313;28;96538;-54
2024/02/07 11:28:06;;;;;;;;;4.00;3.40;;;;;13.10;100.00;97160.81;6221786;28;96956;-54
2024/02/07 11:31:11;;;;;;;;;3.00;3.00;;;;;12.86;100.00;97154.47;6221390;28;96870;-54
2024/02/07 11:34:15;;;;;;;;;5.00;4.40;;;;;13.09;100.00;97156.53;6225000;28;96175;-54
2024/02/07 11:37:21;;;;;;;;;5.00;5.00;;;;;13.15;100.00;97152.69;6237783;28;96420;-54
2024/02/07 11:40:26;;;;;;;;;4.00;4.00;;;;;13.30;100.00;97133.66;6239594;28;96208;-54
2024/02/07 11:43:30;;;;;;;;;4.00;3.00;;;;;13.43;100.00;97151.19;6239441;28;96348;-54
2024/02/07 11:46:35;;;;;;;;;4.00;4.00;;;;;13.57;100.00;97140.50;6238394;28;96461;-54
2024/02/07 11:49:39;;;;;;;;;5.00;4.00;;;;;13.69;100.00;97139.03;6237869;28;96874;-55
2024/02/07 11:52:43;;;;;;;;;5.00;3.00;;;;;13.84;100.00;97140.81;6232168;28;97237;-54
2024/02/07 11:55:47;;;;;;;;;3.00;3.00;;;;;13.80;100.00;97147.91;6236046;28;96309;-53
2024/02/07 11:58:52;;;;;;;;;4.00;3.25;;;;;13.77;100.00;97124.09;6237516;27;96924;-53
2024/02/07 12:01:57;;;;;;;;;3.00;2.75;;;;;13.91;100.00;97146.72;6237798;28;96626;-55
2024/02/07 12:05:03;;;;;;;;;4.00;3.00;;;;;13.87;100.00;97140.25;6238754;27;96412;-54
2024/02/07 12:08:07;;;;;;;;;6.00;5.00;;;;;13.92;100.00;97136.69;6242958;27;96270;-53
2024/02/07 12:11:11;;;;;;;;;4.60;3.60;;;;;14.01;100.00;97137.69;6241188;28;96301;-53
2024/02/07 12:14:15;;;;;;;;;4.00;3.00;;;;;14.23;100.00;97137.97;6217429;28;96347;-54
2024/02/07 12:17:20;;;;;;;;;6.00;6.00;;;;;14.15;100.00;97128.59;6216098;28;96753;-55
2024/02/07 12:20:28;;;;;;;;;3.00;3.00;;;;;14.31;100.00;97126.53;6217022;28;96376;-54
2024/02/07 12:23:33;;;;;;;;;3.00;2.50;;;;;14.06;100.00;97114.06;6216498;28;96288;-54
2024/02/07 12:26:36;;;;;;;;;3.40;3.40;;;;;14.17;100.00;97131.03;6198161;28;97205;-54
2024/02/07 12:29:39;;;;;;;;;6.40;6.00;;;;;14.16;100.00;97127.50;6215873;28;96921;-54
2024/02/07 12:32:44;;;;;;;;;6.00;5.60;;;;;14.12;100.00;97128.38;6215956;28;96820;-54
2024/02/07 12:35:51;;;;;;;;;4.00;4.00;;;;;14.00;100.00;97136.06;6230828;28;96835;-54
2024/02/07 12:38:54;;;;;;;;;5.00;5.00;;;;;14.13;100.00;97121.81;6240380;28;96349;-55
2024/02/07 12:42:03;;;;;;;;;6.00;5.00;;;;;14.06;100.00;97110.53;6240741;28;96355;-54
2024/02/07 12:45:10;;;;;;;;;6.00;6.00;;;;;13.97;100.00;97115.78;6240691;28;96243;-55
2024/02/07 12:48:15;;;;;;;;;4.40;4.00;;;;;14.01;100.00;97105.97;6242154;28;96567;-54
2024/02/07 12:51:19;;;;;;;;;4.80;3.20;;;;;13.99;100.00;97121.69;6224576;28;96164;-54
2024/02/07 12:54:22;;;;;;;;;3.00;3.00;;;;;14.05;100.00;97109.72;6216720;28;96732;-54
2024/02/07 12:57:26;;;;;;;;;2.00;2.00;;;;;14.05;100.00;97117.03;6229351;28;96879;-54
2024/02/07 13:00:31;;;;;;;;;4.00;3.20;;;;;14.10;100.00;97127.84;6228755;28;96280;-53
2024/02/07 13:03:35;;;;;;;;;3.00;3.00;;;;;14.17;100.00;97123.69;6238310;27;96307;-53
2024/02/07 13:06:42;;;;;;;;;3.00;3.00;;;;;14.27;100.00;97149.84;6249795;27;96518;-54
2024/02/07 13:09:46;;;;;;;;;2.50;2.50;;;;;14.26;100.00;97126.59;6255325;27;96125;-54
2024/02/07 13:12:49;;;;;;;;;3.80;3.00;;;;;14.36;100.00;97121.09;6247474;27;96683;-54
2024/02/07 13:15:56;;;;;;;;;4.60;3.00;;;;;14.40;100.00;97126.72;6251849;27;96438;-54
2024/02/07 13:19:00;;;;;;;;;4.00;3.00;;;;;14.29;100.00;97123.28;6253224;27;96301;-53
2024/02/07 13:22:04;;;;;;;;;2.40;2.40;;;;;14.31;100.00;97116.50;6252030;27;96261;-53
2024/02/07 13:25:11;;;;;;;;;3.00;3.00;;;;;14.35;100.00;97118.63;6255028;27;96772;-54
2024/02/07 13:28:14;;;;;;;;;2.00;2.00;;;;;14.27;100.00;97128.19;6235464;27;96951;-54
2024/02/07 13:31:18;;;;;;;;;2.20;2.20;;;;;14.13;100.00;97108.28;6253499;27;96438;-54
2024/02/07 13:34:23;;;;;;;;;3.00;2.00;;;;;14.17;100.00;97126.38;6235017;27;96740;-53
2024/02/07 13:37:27;;;;;;;;;2.60;2.60;;;;;14.25;100.00;97119.53;6251983;27;96728;-54
2024/02/07 13:40:30;;;;;;;;;2.20;2.20;;;;;14.25;100.00;97127.69;6233293;27;96677;-55
2024/02/07 13:43:33;;;;;;;;;5.00;5.00;;;;;14.26;100.00;97137.44;6253284;27;96374;-54
2024/02/07 13:46:37;;;;;;;;;3.40;2.40;;;;;14.33;100.00;97140.59;6239592;27;96692;-57
2024/02/07 13:49:41;;;;;;;;;3.00;2.00;;;;;14.42;100.00;97119.91;6244391;27;96564;-57
2024/02/07 13:52:44;;;;;;;;;3.00;3.00;;;;;14.31;100.00;97129.25;6244111;27;96677;-57
2024/02/07 13:55:50;;;;;;;;;3.00;2.80;;;;;14.45;100.00;97148.34;6244449;27;97131;-57
2024/02/07 13:58:54;;;;;;;;;3.00;3.00;;;;;14.40;100.00;97154.66;6224131;28;96494;-57
2024/02/07 14:01:59;;;;;;;;;3.00;2.40;;;;;14.39;100.00;97146.78;6250687;27;96957;-58
2024/02/07 14:05:03;;;;;;;;;4.00;3.00;;;;;14.42;100.00;97146.19;6242203;27;96311;-57
2024/02/07 14:08:07;;;;;;;;;4.00;4.00;;;;;14.48;100.00;97151.28;6235879;27;96675;-57
2024/02/07 14:11:11;;;;;;;;;2.80;2.00;;;;;14.45;100.00;97151.88;6243750;27;96550;-57
2024/02/07 14:14:14;;;;;;;;;3.00;3.00;;;;;14.59;100.00;97157.41;6236507;27;96483;-59
2024/02/07 14:17:18;;;;;;;;;4.40;3.00;;;;;14.61;100.00;97155.22;6234990;27;96496;-59
2024/02/07 14:20:22;;;;;;;;;3.00;3.00;;;;;14.63;100.00;97161.97;6236659;27;96437;-58
2024/02/07 14:23:25;;;;;;;;;3.00;2.25;;;;;14.58;100.00;97162.03;6236786;27;96739;-59
2024/02/07 14:26:28;;;;;;;;;3.00;3.00;;;;;14.48;100.00;97155.91;6239087;27;97163;-59
2024/02/07 14:29:32;;;;;;;;;5.00;3.00;;;;;14.53;100.00;97166.69;6226673;27;97056;-58
2024/02/07 14:32:35;;;;;;;;;3.50;3.00;;;;;14.55;100.00;97162.63;6239295;27;96828;-59
2024/02/07 14:35:40;;;;;;;;;3.00;3.00;;;;;14.42;100.00;97143.50;6236790;27;97424;-59
2024/02/07 14:38:43;;;;;;;;;3.00;2.00;;;;;14.59;100.00;97163.66;6242733;27;96505;-58
2024/02/07 14:41:46;;;;;;;;;3.00;2.25;;;;;14.53;100.00;97156.66;6235344;28;96677;-59
2024/02/07 14:44:49;;;;;;;;;4.00;3.60;;;;;14.50;100.00;97151.81;6226532;28;96374;-58
2024/02/07 14:47:52;;;;;;;;;2.00;2.00;;;;;14.55;100.00;97172.66;6215170;28;97350;-58
2024/02/07 14:50:57;;;;;;;;;3.00;3.00;;;;;14.52;100.00;97171.31;6208426;28;98819;-59
2024/02/07 14:54:00;;;;;;;;;3.00;3.00;;;;;14.54;100.00;97177.25;6224865;28;96264;-58
2024/02/07 14:57:03;;;;;;;;;4.80;4.20;;;;;14.46;100.00;97193.34;6227694;28;98158;-57
2024/02/07 15:00:11;;;;;;;;;4.00;4.00;;;;;14.49;100.00;97230.72;6229425;28;96875;-57
2024/02/07 15:03:14;;;;;;;;;5.00;4.00;;;;;14.27;100.00;97245.53;6231248;28;96562;-57
2024/02/07 15:06:19;;;;;;;;;3.00;3.00;;;;;13.86;100.00;97236.16;6232261;28;96802;-57
2024/02/07 15:09:24;;;;;;;;;3.00;3.00;;;;;13.68;100.00;97248.44;6232624;28;97064;-57
2024/02/07 15:12:27;;;;;;;;;2.00;2.00;;;;;13.48;100.00;97248.59;6231607;28;97533;-57
2024/02/07 15:15:31;;;;;;;;;2.00;2.00;;;;;13.14;100.00;97245.81;6225853;28;96641;-57
2024/02/07 15:18:34;;;;;;;;;2.00;1.00;;;;;12.85;100.00;97250.22;6235401;28;96374;-57